Flight Track Log - Related Links

Times and Time Zones

All times are in EDT time to prevent confusion due to time zone crossing. See the N77PV flight status page for this flight to view local times or setup timezone preferences in your user account.

Time Position Orientation Groundspeed Altitude Reporting Facility
EDT Latitude Longitude Course Direction KTS MPH feet Rate Location/Type
Mon 02:50:46 PM 29.6306 -95.2825 168° South 137 158 500  Level Houston Center
Mon 02:52:00 PM 29.5769 -95.2697 168° South 171 197 2,800 1,829 Climbing Houston Center
Mon 02:52:08 PM 29.5725 -95.2664 147° Southeast 160 184 3,000 1,377 Climbing Houston Center
Mon 02:53:01 PM 29.5281 -95.2636 177° South 185 213 4,200 1,258 Climbing Houston Center
Mon 02:53:10 PM 29.5242 -95.2642 187° South 177 204 4,300 1,161 Climbing Houston Center
Mon 02:54:03 PM 29.4769 -95.2794 196° South 201 231 5,400 1,065 Climbing Houston Center
Mon 02:54:12 PM 29.4722 -95.2806 192° South 193 222 5,400 1,082 Level Houston Center
Mon 02:55:04 PM 29.4197 -95.2958 194° South 196 226 6,500 1,065 Climbing Houston Center
Mon 02:55:14 PM 29.4194 -95.2958 180° South 195 224 6,500 667 Level Houston Center
Mon 02:56:16 PM 29.3650 -95.3094 192° South 197 227 7,300 912 Climbing Houston Center
Mon 02:57:19 PM 29.2978 -95.3264 192° South 204 235 8,400 960 Climbing Houston Center
Mon 02:58:21 PM 29.2589 -95.3647 221° Southwest 199 229 9,300 774 Climbing Houston Center
Mon 02:59:23 PM 29.2347 -95.4233 245° Southwest 201 231 10,000 726 Climbing Houston Center
Mon 03:00:25 PM 29.2064 -95.4786 240° Southwest 203 234 10,800 726 Climbing Houston Center
Mon 03:01:27 PM 29.1794 -95.5350 241° Southwest 201 231 11,500 629 Climbing Houston Center
Mon 03:02:29 PM 29.1678 -95.5986 258° West 207 238 12,100 624 Climbing Houston Center
Mon 03:03:32 PM 29.1694 -95.6797 271° West 210 242 12,800 528 Climbing Houston Center
Mon 03:04:34 PM 29.1572 -95.7439 258° West 211 243 13,200 387 Climbing Houston Center
Mon 03:05:36 PM 29.1375 -95.8081 251° West 211 243 13,600 387 Climbing Houston Center
Mon 03:06:38 PM 29.1217 -95.8731 254° West 211 243 14,000 194 Climbing Houston Center
Mon 03:07:40 PM 29.1039 -95.9406 253° West 216 249 14,000  Level Houston Center
Mon 03:08:42 PM 29.0847 -96.0167 254° West 223 257 14,000  Level Houston Center
Mon 03:09:45 PM 29.0661 -96.0875 253° West 231 266 14,000  Level Houston Center
Mon 03:10:47 PM 29.0347 -96.1533 241° Southwest 232 267 14,000  Level Houston Center
Mon 03:11:49 PM 28.9992 -96.2328 243° Southwest 232 267 14,000 -194 Level Houston Center
Mon 03:12:51 PM 28.9681 -96.3003 242° Southwest 236 272 13,600 -484 Descending Houston Center
Mon 03:13:53 PM 28.9406 -96.3631 243° Southwest 225 259 13,000 -816 Descending Houston Center
Mon 03:14:56 PM 28.9150 -96.4189 242° Southwest 205 236 11,900 -1,104 Descending Houston Center
Mon 03:15:58 PM 28.8914 -96.4772 245° Southwest 203 234 10,700 -968 Descending Houston Center
Mon 03:17:00 PM 28.8978 -96.5392 277° West 199 229 9,900 -919 Descending Houston Center
Mon 03:18:02 PM 28.8894 -96.6047 262° West 176 203 8,800 -1,210 Descending Houston Center
Mon 03:19:04 PM 28.8811 -96.6597 260° West 175 201 7,400 -1,258 Descending Houston Center
Mon 03:20:06 PM 28.8764 -96.7183 265° West 180 207 6,200 -1,344 Descending Houston Center
Mon 03:21:09 PM 28.8714 -96.7756 264° West 181 208 4,600 -1,524 Descending Houston Center

Login

Don't have an account? Register now (free) for customized features, flight alerts, and more!